sensor_id;sensor_type;location;lat;lon;timestamp;pressure;altitude;pressure_sealevel;temperature;humidity
72210;BME280;60113;48.762;12.302;2022-10-18T00:01:57;98214.50;;;7.82;79.71
72210;BME280;60113;48.762;12.302;2022-10-18T00:04:23;98211.34;;;7.93;82.21
72210;BME280;60113;48.762;12.302;2022-10-18T00:06:48;98212.72;;;8.00;82.20
72210;BME280;60113;48.762;12.302;2022-10-18T00:09:14;98219.19;;;8.11;81.28
72210;BME280;60113;48.762;12.302;2022-10-18T00:11:40;98210.03;;;8.20;80.97
72210;BME280;60113;48.762;12.302;2022-10-18T00:14:05;98207.78;;;8.30;80.95
72210;BME280;60113;48.762;12.302;2022-10-18T00:16:31;98209.75;;;8.42;81.57
72210;BME280;60113;48.762;12.302;2022-10-18T00:18:57;98209.38;;;8.50;79.86
72210;BME280;60113;48.762;12.302;2022-10-18T00:21:23;98206.59;;;8.53;81.18
72210;BME280;60113;48.762;12.302;2022-10-18T00:23:50;98213.63;;;8.53;80.44
72210;BME280;60113;48.762;12.302;2022-10-18T00:26:22;98211.16;;;8.49;81.14
72210;BME280;60113;48.762;12.302;2022-10-18T00:29:00;98207.75;;;8.47;83.69
72210;BME280;60113;48.762;12.302;2022-10-18T00:31:28;98201.75;;;8.45;80.96
72210;BME280;60113;48.762;12.302;2022-10-18T00:33:56;98203.53;;;8.45;81.40
72210;BME280;60113;48.762;12.302;2022-10-18T00:36:23;98207.31;;;8.39;82.17
72210;BME280;60113;48.762;12.302;2022-10-18T00:38:49;98204.09;;;8.34;82.49
72210;BME280;60113;48.762;12.302;2022-10-18T00:41:18;98201.78;;;8.28;82.59
72210;BME280;60113;48.762;12.302;2022-10-18T00:46:26;98208.63;;;8.12;83.24
72210;BME280;60113;48.762;12.302;2022-10-18T00:48:54;98208.13;;;8.06;79.94
72210;BME280;60113;48.762;12.302;2022-10-18T00:51:21;98210.19;;;7.99;79.12
72210;BME280;60113;48.762;12.302;2022-10-18T00:53:48;98213.09;;;7.93;80.71
72210;BME280;60113;48.762;12.302;2022-10-18T00:56:14;98204.66;;;7.87;80.42
72210;BME280;60113;48.762;12.302;2022-10-18T00:58:41;98210.13;;;7.83;81.09
72210;BME280;60113;48.762;12.302;2022-10-18T01:01:06;98212.88;;;7.80;81.57
72210;BME280;60113;48.762;12.302;2022-10-18T01:03:32;98202.44;;;7.80;81.73
72210;BME280;60113;48.762;12.302;2022-10-18T01:05:59;98207.72;;;7.78;80.27
72210;BME280;60113;48.762;12.302;2022-10-18T01:08:44;98206.88;;;7.78;80.94
72210;BME280;60113;48.762;12.302;2022-10-18T01:11:28;98215.88;;;7.72;81.39
72210;BME280;60113;48.762;12.302;2022-10-18T01:17:03;98206.91;;;7.58;79.13
72210;BME280;60113;48.762;12.302;2022-10-18T01:22:43;98201.31;;;7.48;82.70
72210;BME280;60113;48.762;12.302;2022-10-18T01:27:49;98210.28;;;7.43;82.60
72210;BME280;60113;48.762;12.302;2022-10-18T01:30:45;98206.75;;;7.44;83.12
72210;BME280;60113;48.762;12.302;2022-10-18T01:33:30;98196.38;;;7.42;83.54
72210;BME280;60113;48.762;12.302;2022-10-18T01:38:59;98204.28;;;7.41;85.49
72210;BME280;60113;48.762;12.302;2022-10-18T01:41:27;98203.44;;;7.40;83.23
72210;BME280;60113;48.762;12.302;2022-10-18T01:43:57;98211.34;;;7.38;83.03
72210;BME280;60113;48.762;12.302;2022-10-18T01:46:24;98205.34;;;7.36;81.97
72210;BME280;60113;48.762;12.302;2022-10-18T01:48:54;98210.63;;;7.35;82.20
72210;BME280;60113;48.762;12.302;2022-10-18T01:51:26;98206.47;;;7.31;82.48
72210;BME280;60113;48.762;12.302;2022-10-18T01:53:52;98201.31;;;7.29;82.29
72210;BME280;60113;48.762;12.302;2022-10-18T02:10:37;98185.69;;;7.10;83.02
72210;BME280;60113;48.762;12.302;2022-10-18T02:13:06;98195.34;;;7.08;83.06
72210;BME280;60113;48.762;12.302;2022-10-18T02:15:38;98199.56;;;7.10;82.01
72210;BME280;60113;48.762;12.302;2022-10-18T02:18:10;98190.06;;;7.09;82.60
72210;BME280;60113;48.762;12.302;2022-10-18T02:20:38;98183.13;;;7.08;83.19
72210;BME280;60113;48.762;12.302;2022-10-18T02:23:06;98192.59;;;7.11;83.24
72210;BME280;60113;48.762;12.302;2022-10-18T02:25:34;98186.44;;;7.12;81.87
72210;BME280;60113;48.762;12.302;2022-10-18T02:28:01;98194.28;;;7.12;82.82
72210;BME280;60113;48.762;12.302;2022-10-18T02:30:39;98183.97;;;7.09;82.09
72210;BME280;60113;48.762;12.302;2022-10-18T02:33:14;98191.13;;;7.05;82.17
72210;BME280;60113;48.762;12.302;2022-10-18T02:35:50;98195.63;;;7.02;82.68
72210;BME280;60113;48.762;12.302;2022-10-18T02:38:18;98196.63;;;6.99;82.58
72210;BME280;60113;48.762;12.302;2022-10-18T02:40:45;98191.47;;;6.97;82.75
72210;BME280;60113;48.762;12.302;2022-10-18T02:43:12;98187.00;;;6.99;82.59
72210;BME280;60113;48.762;12.302;2022-10-18T02:45:38;98178.88;;;7.06;80.22
72210;BME280;60113;48.762;12.302;2022-10-18T02:48:04;98187.84;;;7.19;79.97
72210;BME280;60113;48.762;12.302;2022-10-18T02:50:30;98190.88;;;7.29;80.34
72210;BME280;60113;48.762;12.302;2022-10-18T02:52:56;98191.50;;;7.34;82.41
72210;BME280;60113;48.762;12.302;2022-10-18T02:55:21;98185.50;;;7.32;82.67
72210;BME280;60113;48.762;12.302;2022-10-18T02:57:47;98180.34;;;7.31;85.39
72210;BME280;60113;48.762;12.302;2022-10-18T03:00:13;98186.63;;;7.27;83.68
72210;BME280;60113;48.762;12.302;2022-10-18T03:02:38;98177.34;;;7.21;82.86
72210;BME280;60113;48.762;12.302;2022-10-18T03:05:04;98181.84;;;7.17;82.89
72210;BME280;60113;48.762;12.302;2022-10-18T03:07:30;98186.34;;;7.13;84.06
72210;BME280;60113;48.762;12.302;2022-10-18T03:09:55;98183.97;;;7.09;84.09
72210;BME280;60113;48.762;12.302;2022-10-18T03:12:21;98191.94;;;7.06;84.52
72210;BME280;60113;48.762;12.302;2022-10-18T03:14:47;98178.13;;;7.04;81.06
72210;BME280;60113;48.762;12.302;2022-10-18T03:17:13;98184.25;;;7.03;81.92
72210;BME280;60113;48.762;12.302;2022-10-18T03:19:38;98188.72;;;7.00;82.77
72210;BME280;60113;48.762;12.302;2022-10-18T03:22:05;98198.31;;;7.00;81.48
72210;BME280;60113;48.762;12.302;2022-10-18T03:24:30;98201.84;;;6.99;85.20
72210;BME280;60113;48.762;12.302;2022-10-18T03:26:56;98209.63;;;7.00;84.42
72210;BME280;60113;48.762;12.302;2022-10-18T03:29:22;98206.16;;;7.00;84.85
72210;BME280;60113;48.762;12.302;2022-10-18T03:31:47;98213.00;;;7.03;80.50
72210;BME280;60113;48.762;12.302;2022-10-18T03:34:13;98208.47;;;7.06;80.05
72210;BME280;60113;48.762;12.302;2022-10-18T03:36:40;98212.63;;;7.10;84.46
72210;BME280;60113;48.762;12.302;2022-10-18T03:39:06;98203.75;;;7.15;87.26
72210;BME280;60113;48.762;12.302;2022-10-18T03:41:33;98205.31;;;7.19;81.45
72210;BME280;60113;48.762;12.302;2022-10-18T03:43:58;98216.47;;;7.22;82.21
72210;BME280;60113;48.762;12.302;2022-10-18T03:46:24;98214.53;;;7.26;80.40
72210;BME280;60113;48.762;12.302;2022-10-18T03:48:49;98210.97;;;7.29;81.07
72210;BME280;60113;48.762;12.302;2022-10-18T03:51:15;98206.41;;;7.32;82.87
72210;BME280;60113;48.762;12.302;2022-10-18T03:53:41;98203.66;;;7.35;83.77
72210;BME280;60113;48.762;12.302;2022-10-18T03:56:06;98202.56;;;7.40;83.57
72210;BME280;60113;48.762;12.302;2022-10-18T03:58:32;98200.75;;;7.42;83.55
72210;BME280;60113;48.762;12.302;2022-10-18T04:00:57;98191.88;;;7.44;83.92
72210;BME280;60113;48.762;12.302;2022-10-18T04:03:23;98201.31;;;7.48;83.90
72210;BME280;60113;48.762;12.302;2022-10-18T04:05:48;98203.84;;;7.50;82.41
72210;BME280;60113;48.762;12.302;2022-10-18T04:08:16;98203.06;;;7.48;83.75
72210;BME280;60113;48.762;12.302;2022-10-18T04:10:42;98199.59;;;7.47;85.21
72210;BME280;60113;48.762;12.302;2022-10-18T04:13:08;98195.22;;;7.48;84.48
72210;BME280;60113;48.762;12.302;2022-10-18T04:15:34;98196.97;;;7.47;83.87
72210;BME280;60113;48.762;12.302;2022-10-18T04:18:00;98193.38;;;7.50;84.40
72210;BME280;60113;48.762;12.302;2022-10-18T04:20:26;98191.44;;;7.54;82.16
72210;BME280;60113;48.762;12.302;2022-10-18T04:22:52;98187.78;;;7.58;82.43
72210;BME280;60113;48.762;12.302;2022-10-18T04:25:20;98194.53;;;7.62;83.35
72210;BME280;60113;48.762;12.302;2022-10-18T04:27:46;98179.56;;;7.66;82.65
72210;BME280;60113;48.762;12.302;2022-10-18T04:30:12;98188.00;;;7.71;82.70
72210;BME280;60113;48.762;12.302;2022-10-18T04:32:38;98189.66;;;7.73;83.97
72210;BME280;60113;48.762;12.302;2022-10-18T04:35:04;98186.03;;;7.76;83.94
72210;BME280;60113;48.762;12.302;2022-10-18T04:37:30;98192.03;;;7.78;83.18
72210;BME280;60113;48.762;12.302;2022-10-18T04:39:56;98189.34;;;7.80;83.75
72210;BME280;60113;48.762;12.302;2022-10-18T04:42:22;98190.16;;;7.80;85.13
72210;BME280;60113;48.762;12.302;2022-10-18T04:44:48;98198.03;;;7.80;84.89
72210;BME280;60113;48.762;12.302;2022-10-18T04:47:15;98195.47;;;7.79;83.26
72210;BME280;60113;48.762;12.302;2022-10-18T04:49:41;98206.03;;;7.77;84.75
72210;BME280;60113;48.762;12.302;2022-10-18T04:52:06;98200.03;;;7.75;84.49
72210;BME280;60113;48.762;12.302;2022-10-18T04:54:33;98201.78;;;7.74;83.90
72210;BME280;60113;48.762;12.302;2022-10-18T04:57:00;98201.94;;;7.71;81.96
72210;BME280;60113;48.762;12.302;2022-10-18T04:59:27;98200.34;;;7.69;82.85
72210;BME280;60113;48.762;12.302;2022-10-18T05:01:53;98197.94;;;7.64;82.55
72210;BME280;60113;48.762;12.302;2022-10-18T05:04:18;98190.41;;;7.58;84.94
72210;BME280;60113;48.762;12.302;2022-10-18T05:06:44;98194.91;;;7.54;82.78
72210;BME280;60113;48.762;12.302;2022-10-18T05:09:10;98194.13;;;7.52;84.12
72210;BME280;60113;48.762;12.302;2022-10-18T05:11:36;98202.91;;;7.51;83.48
72210;BME280;60113;48.762;12.302;2022-10-18T05:14:02;98203.13;;;7.46;84.24
72210;BME280;60113;48.762;12.302;2022-10-18T05:16:28;98198.13;;;7.42;84.38
72210;BME280;60113;48.762;12.302;2022-10-18T05:18:54;98193.03;;;7.38;83.13
72210;BME280;60113;48.762;12.302;2022-10-18T05:21:19;98189.81;;;7.33;83.17
72210;BME280;60113;48.762;12.302;2022-10-18T05:23:46;98178.66;;;7.30;83.99
72210;BME280;60113;48.762;12.302;2022-10-18T05:26:12;98180.41;;;7.29;84.03
72210;BME280;60113;48.762;12.302;2022-10-18T05:28:37;98167.34;;;7.29;83.98
72210;BME280;60113;48.762;12.302;2022-10-18T05:31:04;98169.88;;;7.31;83.17
72210;BME280;60113;48.762;12.302;2022-10-18T05:33:31;98175.97;;;7.31;82.28
72210;BME280;60113;48.762;12.302;2022-10-18T05:35:56;98179.44;;;7.32;84.07
72210;BME280;60113;48.762;12.302;2022-10-18T05:38:22;98179.50;;;7.30;83.65
72210;BME280;60113;48.762;12.302;2022-10-18T05:40:48;98185.63;;;7.29;82.45
72210;BME280;60113;48.762;12.302;2022-10-18T05:43:14;98183.94;;;7.28;81.77
72210;BME280;60113;48.762;12.302;2022-10-18T05:45:46;98189.25;;;7.27;84.23
72210;BME280;60113;48.762;12.302;2022-10-18T05:48:12;98192.78;;;7.25;85.31
72210;BME280;60113;48.762;12.302;2022-10-18T05:50:39;98195.41;;;7.25;84.16
72210;BME280;60113;48.762;12.302;2022-10-18T05:53:04;98196.31;;;7.24;84.45
72210;BME280;60113;48.762;12.302;2022-10-18T05:55:30;98189.31;;;7.25;83.64
72210;BME280;60113;48.762;12.302;2022-10-18T05:57:55;98183.16;;;7.26;86.01
72210;BME280;60113;48.762;12.302;2022-10-18T06:00:21;98177.78;;;7.29;84.05
72210;BME280;60113;48.762;12.302;2022-10-18T06:02:46;98179.44;;;7.32;83.62
72210;BME280;60113;48.762;12.302;2022-10-18T06:05:11;98179.25;;;7.35;84.33
72210;BME280;60113;48.762;12.302;2022-10-18T06:07:37;98175.66;;;7.37;85.99
72210;BME280;60113;48.762;12.302;2022-10-18T06:10:03;98181.50;;;7.43;85.17
72210;BME280;60113;48.762;12.302;2022-10-18T06:12:28;98186.50;;;7.47;85.12
72210;BME280;60113;48.762;12.302;2022-10-18T06:14:54;98186.22;;;7.54;85.49
72210;BME280;60113;48.762;12.302;2022-10-18T06:17:19;98196.31;;;7.61;83.22
72210;BME280;60113;48.762;12.302;2022-10-18T06:19:45;98187.41;;;7.66;84.38
72210;BME280;60113;48.762;12.302;2022-10-18T06:22:11;98187.19;;;7.70;86.70
72210;BME280;60113;48.762;12.302;2022-10-18T06:24:36;98196.56;;;7.74;85.79
72210;BME280;60113;48.762;12.302;2022-10-18T06:27:02;98199.59;;;7.84;86.68
72210;BME280;60113;48.762;12.302;2022-10-18T06:29:37;98199.78;;;7.97;87.70
72210;BME280;60113;48.762;12.302;2022-10-18T06:32:05;98206.94;;;8.11;86.86
72210;BME280;60113;48.762;12.302;2022-10-18T06:34:31;98222.91;;;8.24;88.05
72210;BME280;60113;48.762;12.302;2022-10-18T06:36:57;98227.75;;;8.32;88.03
72210;BME280;60113;48.762;12.302;2022-10-18T06:39:22;98219.50;;;8.40;87.73
72210;BME280;60113;48.762;12.302;2022-10-18T06:41:48;98218.09;;;8.50;87.25
72210;BME280;60113;48.762;12.302;2022-10-18T06:44:13;98213.25;;;8.60;87.33
72210;BME280;60113;48.762;12.302;2022-10-18T06:46:40;98213.66;;;8.69;86.78
72210;BME280;60113;48.762;12.302;2022-10-18T06:49:06;98226.19;;;8.80;87.55
72210;BME280;60113;48.762;12.302;2022-10-18T06:51:32;98218.63;;;8.91;87.64
72210;BME280;60113;48.762;12.302;2022-10-18T06:53:57;98234.69;;;9.01;87.16
72210;BME280;60113;48.762;12.302;2022-10-18T06:56:23;98232.66;;;9.06;87.47
72210;BME280;60113;48.762;12.302;2022-10-18T06:58:48;98231.41;;;9.13;87.62
72210;BME280;60113;48.762;12.302;2022-10-18T07:01:18;98235.31;;;9.22;87.19
72210;BME280;60113;48.762;12.302;2022-10-18T07:03:45;98235.63;;;9.32;86.45
72210;BME280;60113;48.762;12.302;2022-10-18T07:06:13;98233.28;;;9.44;86.30
72210;BME280;60113;48.762;12.302;2022-10-18T07:08:39;98248.16;;;9.59;86.56
72210;BME280;60113;48.762;12.302;2022-10-18T07:11:14;98249.66;;;9.80;87.60
72210;BME280;60113;48.762;12.302;2022-10-18T07:13:40;98251.78;;;10.04;88.23
72210;BME280;60113;48.762;12.302;2022-10-18T07:16:12;98260.78;;;10.30;89.10
72210;BME280;60113;48.762;12.302;2022-10-18T07:18:41;98259.44;;;10.54;89.07
72210;BME280;60113;48.762;12.302;2022-10-18T07:21:12;98253.81;;;10.74;90.43
72210;BME280;60113;48.762;12.302;2022-10-18T07:23:40;98251.97;;;10.91;89.35
72210;BME280;60113;48.762;12.302;2022-10-18T07:26:12;98241.88;;;11.12;88.95
72210;BME280;60113;48.762;12.302;2022-10-18T07:28:39;98228.22;;;11.35;89.95
72210;BME280;60113;48.762;12.302;2022-10-18T07:31:06;98216.81;;;11.49;91.35
72210;BME280;60113;48.762;12.302;2022-10-18T07:33:34;98211.03;;;11.57;90.48
72210;BME280;60113;48.762;12.302;2022-10-18T07:36:06;98214.13;;;11.63;89.30
72210;BME280;60113;48.762;12.302;2022-10-18T07:38:34;98223.69;;;11.65;89.33
72210;BME280;60113;48.762;12.302;2022-10-18T07:41:02;98238.56;;;11.66;88.69
72210;BME280;60113;48.762;12.302;2022-10-18T07:43:29;98239.59;;;11.63;88.19
72210;BME280;60113;48.762;12.302;2022-10-18T07:45:57;98246.97;;;11.58;88.71
72210;BME280;60113;48.762;12.302;2022-10-18T07:48:23;98258.09;;;11.48;90.81
72210;BME280;60113;48.762;12.302;2022-10-18T07:50:49;98246.81;;;11.46;87.78
72210;BME280;60113;48.762;12.302;2022-10-18T07:53:15;98254.31;;;11.38;90.47
72210;BME280;60113;48.762;12.302;2022-10-18T07:55:40;98245.50;;;11.39;89.14
72210;BME280;60113;48.762;12.302;2022-10-18T07:58:06;98258.38;;;11.44;88.12
72210;BME280;60113;48.762;12.302;2022-10-18T08:00:32;98254.31;;;11.53;86.89
72210;BME280;60113;48.762;12.302;2022-10-18T08:02:58;98264.72;;;11.54;90.38
72210;BME280;60113;48.762;12.302;2022-10-18T08:05:26;98258.00;;;11.50;91.32
72210;BME280;60113;48.762;12.302;2022-10-18T08:07:52;98246.59;;;11.49;90.79
72210;BME280;60113;48.762;12.302;2022-10-18T08:10:18;98253.75;;;11.47;91.26
72210;BME280;60113;48.762;12.302;2022-10-18T08:12:44;98253.66;;;11.49;91.32
72210;BME280;60113;48.762;12.302;2022-10-18T08:15:10;98240.00;;;11.57;89.78
72210;BME280;60113;48.762;12.302;2022-10-18T08:17:35;98235.50;;;11.59;91.55
72210;BME280;60113;48.762;12.302;2022-10-18T08:20:01;98232.00;;;11.58;90.97
72210;BME280;60113;48.762;12.302;2022-10-18T08:22:26;98229.63;;;11.68;88.57
72210;BME280;60113;48.762;12.302;2022-10-18T08:24:52;98222.81;;;11.79;88.54
72210;BME280;60113;48.762;12.302;2022-10-18T08:27:17;98224.84;;;11.88;89.07
72210;BME280;60113;48.762;12.302;2022-10-18T08:29:43;98228.22;;;12.03;88.08
72210;BME280;60113;48.762;12.302;2022-10-18T08:32:08;98230.94;;;12.16;86.89
72210;BME280;60113;48.762;12.302;2022-10-18T08:34:34;98232.75;;;12.29;87.17
72210;BME280;60113;48.762;12.302;2022-10-18T08:37:07;98243.09;;;12.45;87.78
72210;BME280;60113;48.762;12.302;2022-10-18T08:39:33;98262.28;;;12.60;89.37
72210;BME280;60113;48.762;12.302;2022-10-18T08:44:55;98264.28;;;12.82;86.67
72210;BME280;60113;48.762;12.302;2022-10-18T08:47:27;98250.13;;;12.96;86.29
72210;BME280;60113;48.762;12.302;2022-10-18T08:50:04;98252.03;;;13.07;87.10
72210;BME280;60113;48.762;12.302;2022-10-18T08:55:35;98262.28;;;13.36;87.22
72210;BME280;60113;48.762;12.302;2022-10-18T08:58:23;98267.66;;;13.61;86.77
72210;BME280;60113;48.762;12.302;2022-10-18T09:06:31;98239.19;;;14.25;85.28
72210;BME280;60113;48.762;12.302;2022-10-18T09:20:43;98225.97;;;14.95;85.84
72210;BME280;60113;48.762;12.302;2022-10-18T09:23:18;98219.91;;;15.28;85.48
72210;BME280;60113;48.762;12.302;2022-10-18T09:32:19;98211.81;;;15.85;84.07
72210;BME280;60113;48.762;12.302;2022-10-18T09:34:40;98212.84;;;16.05;84.64
72210;BME280;60113;48.762;12.302;2022-10-18T09:37:15;98211.41;;;16.22;84.51
72210;BME280;60113;48.762;12.302;2022-10-18T09:39:42;98216.06;;;16.30;84.35
72210;BME280;60113;48.762;12.302;2022-10-18T09:42:25;98215.03;;;16.43;82.96
72210;BME280;60113;48.762;12.302;2022-10-18T09:47:25;98210.75;;;17.14;84.38
72210;BME280;60113;48.762;12.302;2022-10-18T09:49:59;98201.63;;;17.78;86.10
72210;BME280;60113;48.762;12.302;2022-10-18T09:52:33;98196.81;;;18.41;84.46
72210;BME280;60113;48.762;12.302;2022-10-18T09:55:04;98202.84;;;18.81;88.04
72210;BME280;60113;48.762;12.302;2022-10-18T09:57:38;98210.06;;;18.98;85.62
72210;BME280;60113;48.762;12.302;2022-10-18T10:00:16;98203.00;;;19.17;81.78
72210;BME280;60113;48.762;12.302;2022-10-18T10:02:43;98203.94;;;19.44;86.20
72210;BME280;60113;48.762;12.302;2022-10-18T10:05:12;98206.09;;;19.41;83.26
72210;BME280;60113;48.762;12.302;2022-10-18T10:07:43;98214.34;;;19.19;80.67
72210;BME280;60113;48.762;12.302;2022-10-18T10:10:19;98216.91;;;19.01;78.60
72210;BME280;60113;48.762;12.302;2022-10-18T10:12:47;98218.78;;;18.91;80.25
72210;BME280;60113;48.762;12.302;2022-10-18T10:15:26;98213.94;;;19.04;82.61
72210;BME280;60113;48.762;12.302;2022-10-18T10:18:02;98218.72;;;19.10;79.25
72210;BME280;60113;48.762;12.302;2022-10-18T10:20:46;98212.75;;;18.89;75.80
72210;BME280;60113;48.762;12.302;2022-10-18T10:23:23;98204.25;;;18.85;81.20
72210;BME280;60113;48.762;12.302;2022-10-18T10:25:54;98215.78;;;18.76;78.93
72210;BME280;60113;48.762;12.302;2022-10-18T10:28:28;98213.28;;;18.64;79.73
72210;BME280;60113;48.762;12.302;2022-10-18T10:36:24;98199.91;;;19.58;83.62
72210;BME280;60113;48.762;12.302;2022-10-18T10:39:15;98199.63;;;19.80;79.81
72210;BME280;60113;48.762;12.302;2022-10-18T10:41:46;98194.66;;;20.03;75.78
72210;BME280;60113;48.762;12.302;2022-10-18T10:44:20;98201.38;;;20.07;80.37
72210;BME280;60113;48.762;12.302;2022-10-18T10:46:49;98195.31;;;20.23;78.67
72210;BME280;60113;48.762;12.302;2022-10-18T10:49:19;98188.31;;;20.49;80.69
72210;BME280;60113;48.762;12.302;2022-10-18T10:51:53;98182.34;;;20.55;81.43
72210;BME280;60113;48.762;12.302;2022-10-18T10:54:24;98176.06;;;20.65;73.97
72210;BME280;60113;48.762;12.302;2022-10-18T10:57:02;98172.22;;;20.32;77.25
72210;BME280;60113;48.762;12.302;2022-10-18T10:59:31;98167.72;;;20.68;83.98
72210;BME280;60113;48.762;12.302;2022-10-18T11:04:50;98153.97;;;21.57;83.14
72210;BME280;60113;48.762;12.302;2022-10-18T11:07:41;98148.19;;;21.87;75.18
72210;BME280;60113;48.762;12.302;2022-10-18T11:10:18;98146.44;;;22.36;81.92
72210;BME280;60113;48.762;12.302;2022-10-18T11:15:56;98137.31;;;22.79;77.85
72210;BME280;60113;48.762;12.302;2022-10-18T11:18:29;98132.69;;;22.96;75.97
72210;BME280;60113;48.762;12.302;2022-10-18T11:21:14;98126.22;;;23.14;73.99
72210;BME280;60113;48.762;12.302;2022-10-18T11:23:42;98131.78;;;23.35;79.63
72210;BME280;60113;48.762;12.302;2022-10-18T11:28:50;98125.91;;;23.40;78.14
72210;BME280;60113;48.762;12.302;2022-10-18T11:34:37;98115.38;;;23.62;79.62
72210;BME280;60113;48.762;12.302;2022-10-18T11:39:57;98110.72;;;23.94;74.85
72210;BME280;60113;48.762;12.302;2022-10-18T11:47:47;98106.44;;;23.85;63.41
72210;BME280;60113;48.762;12.302;2022-10-18T11:50:32;98105.41;;;23.71;76.58
72210;BME280;60113;48.762;12.302;2022-10-18T11:53:14;98112.00;;;23.36;70.32
72210;BME280;60113;48.762;12.302;2022-10-18T12:01:33;98095.09;;;22.32;67.40
72210;BME280;60113;48.762;12.302;2022-10-18T12:06:35;98089.72;;;23.13;73.91
72210;BME280;60113;48.762;12.302;2022-10-18T12:09:09;98088.44;;;23.32;72.31
72210;BME280;60113;48.762;12.302;2022-10-18T12:11:45;98087.13;;;23.51;67.40
72210;BME280;60113;48.762;12.302;2022-10-18T12:14:35;98078.84;;;23.61;71.04
72210;BME280;60113;48.762;12.302;2022-10-18T12:17:05;98075.53;;;23.74;74.11
72210;BME280;60113;48.762;12.302;2022-10-18T12:19:34;98078.31;;;23.81;72.94
72210;BME280;60113;48.762;12.302;2022-10-18T12:22:31;98078.44;;;24.03;66.99
72210;BME280;60113;48.762;12.302;2022-10-18T12:24:58;98071.63;;;24.45;73.36
72210;BME280;60113;48.762;12.302;2022-10-18T12:27:45;98066.06;;;24.62;64.63
72210;BME280;60113;48.762;12.302;2022-10-18T12:30:30;98068.16;;;24.82;59.32
72210;BME280;60113;48.762;12.302;2022-10-18T12:33:07;98053.81;;;25.12;69.61
72210;BME280;60113;48.762;12.302;2022-10-18T12:35:54;98051.28;;;24.88;53.09
72210;BME280;60113;48.762;12.302;2022-10-18T12:38:27;98064.72;;;24.88;69.20
72210;BME280;60113;48.762;12.302;2022-10-18T12:40:56;98052.44;;;24.64;68.25
72210;BME280;60113;48.762;12.302;2022-10-18T12:43:32;98048.63;;;24.58;65.66
72210;BME280;60113;48.762;12.302;2022-10-18T12:46:05;98048.44;;;24.59;67.57
72210;BME280;60113;48.762;12.302;2022-10-18T12:48:36;98051.03;;;24.68;59.59
72210;BME280;60113;48.762;12.302;2022-10-18T12:51:16;98041.41;;;24.58;60.43
72210;BME280;60113;48.762;12.302;2022-10-18T12:53:44;98038.44;;;24.53;61.52
72210;BME280;60113;48.762;12.302;2022-10-18T12:56:32;98050.50;;;23.97;57.94
72210;BME280;60113;48.762;12.302;2022-10-18T13:09:39;98039.59;;;22.58;58.86
72210;BME280;60113;48.762;12.302;2022-10-18T13:17:58;98032.09;;;22.05;60.39
72210;BME280;60113;48.762;12.302;2022-10-18T13:20:36;98035.66;;;21.97;61.58
72210;BME280;60113;48.762;12.302;2022-10-18T13:28:46;98047.56;;;22.34;59.59
72210;BME280;60113;48.762;12.302;2022-10-18T13:31:22;98046.50;;;22.52;61.66
72210;BME280;60113;48.762;12.302;2022-10-18T13:33:53;98043.28;;;22.65;65.13
72210;BME280;60113;48.762;12.302;2022-10-18T13:36:21;98047.69;;;22.81;64.08
72210;BME280;60113;48.762;12.302;2022-10-18T13:41:27;98047.91;;;22.71;63.14
72210;BME280;60113;48.762;12.302;2022-10-18T13:43:57;98045.59;;;22.68;63.75
72210;BME280;60113;48.762;12.302;2022-10-18T13:57:38;98045.03;;;22.81;58.97
72210;BME280;60113;48.762;12.302;2022-10-18T14:05:43;98053.50;;;22.05;60.34
72210;BME280;60113;48.762;12.302;2022-10-18T14:08:28;98055.88;;;22.00;61.85
72210;BME280;60113;48.762;12.302;2022-10-18T14:11:31;98062.91;;;21.92;58.18
72210;BME280;60113;48.762;12.302;2022-10-18T14:16:39;98063.72;;;22.01;59.97
72210;BME280;60113;48.762;12.302;2022-10-18T14:19:24;98070.06;;;22.08;61.30
72210;BME280;60113;48.762;12.302;2022-10-18T14:21:58;98060.53;;;22.06;60.71
72210;BME280;60113;48.762;12.302;2022-10-18T14:24:28;98066.56;;;22.00;62.22
72210;BME280;60113;48.762;12.302;2022-10-18T14:27:14;98063.94;;;21.83;58.97
72210;BME280;60113;48.762;12.302;2022-10-18T14:29:40;98056.56;;;21.93;63.97
72210;BME280;60113;48.762;12.302;2022-10-18T14:32:16;98055.84;;;22.08;62.87
72210;BME280;60113;48.762;12.302;2022-10-18T14:34:45;98052.81;;;22.19;63.52
72210;BME280;60113;48.762;12.302;2022-10-18T14:37:37;98056.84;;;22.07;60.78
72210;BME280;60113;48.762;12.302;2022-10-18T14:40:03;98060.03;;;22.10;63.33
72210;BME280;60113;48.762;12.302;2022-10-18T14:42:29;98064.75;;;22.00;63.26
72210;BME280;60113;48.762;12.302;2022-10-18T14:44:55;98066.91;;;21.88;63.45
72210;BME280;60113;48.762;12.302;2022-10-18T14:47:27;98060.09;;;21.77;62.57
72210;BME280;60113;48.762;12.302;2022-10-18T14:49:55;98056.91;;;21.73;63.74
72210;BME280;60113;48.762;12.302;2022-10-18T14:52:30;98061.59;;;21.46;63.23
72210;BME280;60113;48.762;12.302;2022-10-18T14:54:56;98056.56;;;21.10;64.37
72210;BME280;60113;48.762;12.302;2022-10-18T14:57:27;98058.56;;;21.16;64.01
72210;BME280;60113;48.762;12.302;2022-10-18T14:59:57;98056.88;;;21.15;64.05
72210;BME280;60113;48.762;12.302;2022-10-18T15:02:25;98050.22;;;21.11;64.40
72210;BME280;60113;48.762;12.302;2022-10-18T15:07:21;98054.47;;;20.87;64.62
72210;BME280;60113;48.762;12.302;2022-10-18T15:09:50;98059.44;;;20.73;64.73
72210;BME280;60113;48.762;12.302;2022-10-18T15:12:16;98061.38;;;20.55;64.64
72210;BME280;60113;48.762;12.302;2022-10-18T15:14:42;98062.81;;;20.41;65.05
72210;BME280;60113;48.762;12.302;2022-10-18T15:17:15;98078.50;;;19.82;69.73
72210;BME280;60113;48.762;12.302;2022-10-18T15:20:00;98082.78;;;19.02;73.87
72210;BME280;60113;48.762;12.302;2022-10-18T15:22:28;98084.69;;;18.35;75.14
72210;BME280;60113;48.762;12.302;2022-10-18T15:25:14;98088.28;;;17.96;76.62
72210;BME280;60113;48.762;12.302;2022-10-18T15:27:45;98085.94;;;17.64;75.80
72210;BME280;60113;48.762;12.302;2022-10-18T15:33:21;98079.81;;;17.23;79.71